Time;durP1;ratioP1;P1;durP2;ratioP2;P2;SDS_P1;SDS_P2;PMS_P1;PMS_P2;Temp;Humidity;BMP_temperature;BMP_pressure;BME280_temperature;BME280_humidity;BME280_pressure;Samples;Min_cycle;Max_cycle;Signal;HPM_P1;HPM_P2
2022/10/23 00:01:32;;;;;;;9.82;5.47;;;10.40;99.90;;;;;;4988973;28;20053;-75
2022/10/23 00:04:00;;;;;;;9.63;5.60;;;10.40;99.90;;;;;;5006538;28;20057;-75
2022/10/23 00:06:27;;;;;;;12.43;5.45;;;10.40;99.90;;;;;;5006517;28;20046;-75
2022/10/23 00:08:53;;;;;;;8.05;4.97;;;10.40;99.90;;;;;;5005481;28;20104;-75
2022/10/23 00:11:22;;;;;;;6.95;5.25;;;10.30;99.90;;;;;;5007084;28;20396;-75
2022/10/23 00:13:48;;;;;;;11.10;6.53;;;10.30;99.90;;;;;;5006948;28;20128;-75
2022/10/23 00:16:14;;;;;;;10.38;6.07;;;10.40;99.90;;;;;;4989696;28;20053;-74
2022/10/23 00:18:40;;;;;;;11.68;6.97;;;10.30;99.90;;;;;;5010375;28;20050;-75
2022/10/23 00:21:08;;;;;;;9.77;5.32;;;10.40;99.90;;;;;;5009818;28;20085;-74
2022/10/23 00:23:34;;;;;;;11.75;6.28;;;10.40;99.90;;;;;;5009370;28;20042;-74
2022/10/23 00:26:00;;;;;;;8.35;5.70;;;10.40;99.90;;;;;;4978915;28;20061;-75
2022/10/23 00:28:26;;;;;;;6.40;4.97;;;10.40;99.90;;;;;;4990382;28;20057;-75
2022/10/23 00:30:52;;;;;;;9.75;5.45;;;10.40;99.90;;;;;;4990371;28;20035;-75
2022/10/23 00:33:17;;;;;;;7.30;5.18;;;10.40;99.90;;;;;;4973741;28;20405;-75
2022/10/23 00:35:43;;;;;;;15.20;5.93;;;10.40;99.90;;;;;;4990235;28;20045;-75
2022/10/23 00:38:09;;;;;;;8.13;5.40;;;10.40;99.90;;;;;;4989421;28;20086;-75
2022/10/23 00:40:35;;;;;;;7.78;5.07;;;10.40;99.90;;;;;;4990398;28;20038;-74
2022/10/23 00:43:02;;;;;;;7.22;5.18;;;10.30;99.90;;;;;;4972530;28;20046;-75
2022/10/23 00:45:32;;;;;;;10.35;6.13;;;10.30;99.90;;;;;;4986664;28;20057;-74
2022/10/23 00:47:59;;;;;;;10.43;5.85;;;10.30;99.90;;;;;;4988394;28;20540;-75
2022/10/23 00:50:27;;;;;;;8.13;5.07;;;10.30;99.90;;;;;;4989031;28;20112;-75
2022/10/23 00:52:55;;;;;;;10.38;5.07;;;10.30;99.90;;;;;;4988824;28;20195;-74
2022/10/23 00:55:24;;;;;;;6.18;5.38;;;10.30;99.90;;;;;;4990131;28;20075;-74
2022/10/23 00:57:50;;;;;;;7.93;5.22;;;10.20;99.90;;;;;;4990070;28;20046;-77
2022/10/23 01:00:23;;;;;;;8.52;5.13;;;10.20;99.90;;;;;;4990253;28;20125;-75
2022/10/23 01:02:48;;;;;;;;;;;10.20;99.90;;;;;;5053742;23;20065;-75
2022/10/23 01:05:14;;;;;;;4.68;3.95;;;10.20;99.90;;;;;;5000120;28;19922;-74
2022/10/23 01:08:01;;;;;;;6.05;4.97;;;10.20;99.90;;;;;;5008893;28;20050;-75
2022/10/23 01:10:43;;;;;;;12.05;6.13;;;10.20;99.90;;;;;;5009828;28;20046;-75
2022/10/23 01:13:34;;;;;;;10.95;5.43;;;10.10;99.90;;;;;;5007930;28;20053;-74
2022/10/23 01:16:29;;;;;;;6.38;4.53;;;10.10;99.90;;;;;;5009219;28;20046;-74
2022/10/23 01:19:15;;;;;;;8.15;5.30;;;10.10;99.90;;;;;;5007694;28;20058;-74
2022/10/23 01:22:05;;;;;;;13.82;5.38;;;10.10;99.90;;;;;;5007587;28;20050;-75
2022/10/23 01:24:48;;;;;;;9.13;6.15;;;10.10;99.90;;;;;;5007774;28;20045;-75
2022/10/23 01:27:20;;;;;;;6.15;4.47;;;10.10;99.90;;;;;;4991264;28;20087;-74
2022/10/23 01:29:50;;;;;;;6.85;5.30;;;10.10;99.90;;;;;;5009853;28;20423;-74
2022/10/23 01:32:46;;;;;;;11.52;6.45;;;10.10;99.90;;;;;;5009590;28;20046;-74
2022/10/23 01:35:15;;;;;;;7.63;5.60;;;10.10;99.90;;;;;;5007969;28;20050;-74
2022/10/23 01:37:50;;;;;;;10.82;7.00;;;10.10;99.90;;;;;;5007007;28;20373;-75
2022/10/23 01:40:29;;;;;;;7.68;5.65;;;10.10;99.90;;;;;;5009616;28;20041;-74
2022/10/23 01:43:00;;;;;;;7.05;5.78;;;10.10;99.90;;;;;;5007424;28;20496;-75
2022/10/23 01:45:59;;;;;;;9.02;6.43;;;10.10;99.90;;;;;;5009040;28;20041;-74
2022/10/23 01:48:28;;;;;;;7.30;6.30;;;10.10;99.90;;;;;;5007621;28;20049;-74
2022/10/23 01:50:57;;;;;;;27.40;6.97;;;10.10;99.90;;;;;;5008353;28;20037;-75
2022/10/23 01:53:26;;;;;;;5.93;5.32;;;10.10;99.90;;;;;;5006628;28;20124;-74
2022/10/23 01:55:54;;;;;;;11.82;6.90;;;10.00;99.90;;;;;;5007357;28;20045;-74
2022/10/23 01:58:20;;;;;;;10.55;6.40;;;10.00;99.90;;;;;;5008989;28;20069;-76
2022/10/23 02:00:48;;;;;;;11.27;6.60;;;10.00;99.90;;;;;;5009098;28;20056;-74
2022/10/23 02:03:16;;;;;;;11.13;6.93;;;10.00;99.90;;;;;;5008224;28;20058;-74
2022/10/23 02:05:42;;;;;;;9.13;5.90;;;10.10;99.90;;;;;;5007441;28;20041;-74
2022/10/23 02:08:08;;;;;;;9.57;6.47;;;10.10;99.90;;;;;;5007236;28;20057;-74
2022/10/23 02:10:42;;;;;;;14.80;7.45;;;10.10;99.90;;;;;;5008375;28;20042;-74
2022/10/23 02:13:14;;;;;;;7.85;6.40;;;10.10;99.90;;;;;;5008224;28;20072;-74
2022/10/23 02:15:44;;;;;;;;;;;10.10;99.90;;;;;;5008929;28;20067;-75
2022/10/23 02:18:43;;;;;;;9.30;6.60;;;10.10;99.90;;;;;;5008092;28;19991;-75
2022/10/23 02:21:14;;;;;;;8.88;6.70;;;10.10;99.90;;;;;;4967997;28;20352;-75
2022/10/23 02:23:42;;;;;;;13.93;8.50;;;10.10;99.90;;;;;;4968355;28;20061;-74
2022/10/23 02:26:16;;;;;;;12.40;6.93;;;10.10;99.90;;;;;;4983145;28;20101;-74
2022/10/23 02:28:52;;;;;;;10.68;7.55;;;10.10;99.90;;;;;;4988488;28;20505;-74
2022/10/23 02:31:21;;;;;;;10.88;7.80;;;10.10;99.90;;;;;;4995783;28;20088;-75
2022/10/23 02:33:47;;;;;;;10.23;6.63;;;10.10;99.90;;;;;;5007120;28;20050;-74
2022/10/23 02:36:13;;;;;;;11.48;5.88;;;10.10;99.90;;;;;;5008162;28;20049;-75
2022/10/23 02:38:43;;;;;;;13.70;7.43;;;10.10;99.90;;;;;;5005571;28;20042;-74
2022/10/23 02:41:34;;;;;;;11.27;7.78;;;10.10;99.90;;;;;;5008137;28;20463;-74
2022/10/23 02:44:02;;;;;;;8.45;6.60;;;10.10;99.90;;;;;;5007500;28;20555;-74
2022/10/23 02:46:49;;;;;;;9.48;7.88;;;10.10;99.90;;;;;;5008060;28;20042;-74
2022/10/23 02:49:33;;;;;;;11.73;7.50;;;10.00;99.90;;;;;;5006638;28;20050;-74
2022/10/23 02:52:10;;;;;;;9.70;8.07;;;10.00;99.90;;;;;;5006494;28;20046;-74
2022/10/23 02:54:47;;;;;;;10.52;6.55;;;10.00;99.90;;;;;;5006268;28;20056;-74
2022/10/23 02:57:33;;;;;;;10.95;8.15;;;10.00;99.90;;;;;;5007357;28;20053;-74
2022/10/23 03:00:11;;;;;;;9.75;8.32;;;10.00;99.90;;;;;;5007260;28;20037;-75
2022/10/23 03:02:42;;;;;;;12.77;7.57;;;10.10;99.90;;;;;;5007226;28;20097;-74
2022/10/23 03:05:14;;;;;;;10.23;8.43;;;10.00;99.90;;;;;;5007560;28;20054;-74
2022/10/23 03:07:40;;;;;;;11.50;8.18;;;10.00;99.90;;;;;;5006712;28;20049;-74
2022/10/23 03:10:07;;;;;;;11.65;8.10;;;10.00;99.90;;;;;;5005737;28;20488;-75
2022/10/23 03:12:33;;;;;;;10.55;7.00;;;10.00;99.90;;;;;;5007144;28;20053;-74
2022/10/23 03:14:58;;;;;;;12.95;8.63;;;10.00;99.90;;;;;;5005820;28;20053;-74
2022/10/23 03:17:24;;;;;;;14.25;7.88;;;9.90;99.90;;;;;;5007352;28;20038;-74
2022/10/23 03:19:50;;;;;;;8.57;7.05;;;9.90;99.90;;;;;;5005986;28;20046;-77
2022/10/23 03:22:16;;;;;;;9.38;7.60;;;9.90;99.90;;;;;;5006798;28;20053;-74
2022/10/23 03:24:41;;;;;;;10.25;7.50;;;9.90;99.90;;;;;;5004320;28;20073;-74
2022/10/23 03:27:07;;;;;;;8.52;7.68;;;9.90;99.90;;;;;;4986012;28;20541;-74
2022/10/23 03:29:32;;;;;;;14.45;8.77;;;9.90;99.90;;;;;;4987519;28;20516;-74
2022/10/23 03:31:58;;;;;;;13.27;8.25;;;9.90;99.90;;;;;;4987087;28;20509;-74
2022/10/23 03:34:24;;;;;;;11.55;7.28;;;9.90;99.90;;;;;;4987821;28;20046;-75
2022/10/23 03:36:49;;;;;;;11.18;8.70;;;10.00;99.90;;;;;;4986816;28;20053;-77
2022/10/23 03:39:16;;;;;;;11.20;8.38;;;10.00;99.90;;;;;;4987681;28;20485;-74
2022/10/23 03:41:41;;;;;;;13.13;8.65;;;10.00;99.90;;;;;;4987397;28;20046;-75
2022/10/23 03:44:07;;;;;;;9.52;7.78;;;10.00;99.90;;;;;;4987092;28;20038;-74
2022/10/23 03:46:32;;;;;;;14.80;8.48;;;10.00;99.90;;;;;;4987527;28;20038;-74
2022/10/23 03:48:58;;;;;;;14.25;7.65;;;10.00;99.90;;;;;;5000480;28;20045;-74
2022/10/23 03:51:24;;;;;;;20.88;9.55;;;10.00;99.90;;;;;;5007320;28;20645;-75
2022/10/23 03:53:50;;;;;;;9.93;8.05;;;10.10;99.90;;;;;;5010703;28;20091;-76
2022/10/23 03:56:16;;;;;;;13.15;10.48;;;10.00;99.90;;;;;;5011070;28;20443;-74
2022/10/23 03:58:41;;;;;;;13.38;9.50;;;10.10;99.90;;;;;;4993235;28;20049;-74
2022/10/23 04:01:07;;;;;;;17.30;10.20;;;10.10;99.90;;;;;;5010924;28;20049;-74
2022/10/23 04:03:33;;;;;;;13.55;10.05;;;10.10;99.90;;;;;;5010352;28;20097;-74
2022/10/23 04:05:58;;;;;;;11.40;7.53;;;10.10;99.90;;;;;;5010404;28;20111;-74
2022/10/23 04:08:24;;;;;;;11.02;8.98;;;10.20;99.90;;;;;;5008967;28;20046;-75
2022/10/23 04:10:49;;;;;;;12.80;9.38;;;10.20;99.90;;;;;;5010258;28;20046;-76
2022/10/23 04:13:15;;;;;;;24.02;10.13;;;10.20;99.90;;;;;;5010813;28;20088;-74
2022/10/23 04:15:47;;;;;;;13.38;9.85;;;10.30;99.90;;;;;;5010589;28;20051;-75
2022/10/23 04:18:13;;;;;;;12.13;9.25;;;10.30;99.90;;;;;;5010451;28;20049;-74
2022/10/23 04:20:38;;;;;;;12.88;9.32;;;10.30;99.90;;;;;;5009421;28;20492;-75
2022/10/23 04:23:04;;;;;;;13.57;10.35;;;10.30;99.90;;;;;;5007849;28;20068;-74
2022/10/23 04:25:29;;;;;;;14.38;10.07;;;10.30;99.90;;;;;;5001015;28;20404;-75
2022/10/23 04:27:55;;;;;;;13.70;11.30;;;10.40;99.90;;;;;;4990283;28;20120;-74
2022/10/23 04:30:20;;;;;;;19.00;9.85;;;10.40;99.90;;;;;;4991092;28;20082;-75
2022/10/23 04:32:50;;;;;;;16.50;9.85;;;10.40;99.90;;;;;;5001180;28;20042;-74
2022/10/23 04:35:15;;;;;;;17.88;10.85;;;10.40;99.90;;;;;;5010597;28;20577;-74
2022/10/23 04:37:41;;;;;;;11.32;9.40;;;10.40;99.90;;;;;;5009490;28;20140;-74
2022/10/23 04:40:07;;;;;;;16.48;10.13;;;10.40;99.90;;;;;;5009903;28;20056;-74
2022/10/23 04:42:33;;;;;;;13.10;9.80;;;10.40;99.90;;;;;;5010037;28;20499;-74
2022/10/23 04:44:58;;;;;;;16.23;9.43;;;10.40;99.90;;;;;;5008848;28;20049;-74
2022/10/23 04:47:24;;;;;;;14.65;9.38;;;10.40;99.90;;;;;;5009816;28;20129;-75
2022/10/23 04:49:49;;;;;;;11.68;8.00;;;10.40;99.90;;;;;;5008497;28;20058;-76
2022/10/23 04:52:15;;;;;;;14.63;9.25;;;10.40;99.90;;;;;;5009699;28;20258;-74
2022/10/23 04:54:41;;;;;;;16.73;8.93;;;10.40;99.90;;;;;;5009848;28;20373;-74
2022/10/23 04:57:06;;;;;;;11.80;9.50;;;10.30;99.90;;;;;;5009410;28;20042;-74
2022/10/23 04:59:32;;;;;;;11.50;7.70;;;10.30;99.90;;;;;;5009613;28;20524;-74
2022/10/23 05:01:57;;;;;;;14.98;8.77;;;10.30;99.90;;;;;;5009106;28;20045;-74
2022/10/23 05:04:23;;;;;;;12.00;9.68;;;10.30;99.90;;;;;;5009517;28;20049;-74
2022/10/23 05:06:49;;;;;;;13.45;9.18;;;10.30;99.90;;;;;;5009228;28;20046;-75
2022/10/23 05:09:14;;;;;;;13.38;9.23;;;10.30;99.90;;;;;;5008376;28;20137;-74
2022/10/23 05:11:40;;;;;;;13.55;9.07;;;10.30;99.90;;;;;;5007895;28;20052;-74
2022/10/23 05:14:05;;;;;;;12.38;8.73;;;10.30;99.90;;;;;;5009460;28;20069;-75
2022/10/23 05:16:43;;;;;;;17.52;10.52;;;10.30;99.90;;;;;;5009566;28;20038;-74
2022/10/23 05:19:12;;;;;;;14.88;9.63;;;10.30;99.90;;;;;;5009173;28;20042;-73
2022/10/23 05:21:39;;;;;;;11.52;9.25;;;10.30;99.90;;;;;;5008624;28;20073;-75
2022/10/23 05:24:05;;;;;;;15.43;9.73;;;10.30;99.90;;;;;;5008786;28;20057;-74
2022/10/23 05:26:31;;;;;;;16.52;11.13;;;10.40;99.90;;;;;;4991884;28;20046;-75
2022/10/23 05:28:56;;;;;;;17.13;10.50;;;10.30;99.90;;;;;;4989473;28;20137;-74
2022/10/23 05:31:24;;;;;;;20.08;11.25;;;10.40;99.90;;;;;;4989742;28;20125;-75
2022/10/23 05:33:51;;;;;;;15.30;11.52;;;10.40;99.90;;;;;;4989675;28;20567;-76
2022/10/23 05:36:16;;;;;;;16.83;11.30;;;10.40;99.90;;;;;;4987974;28;20476;-74
2022/10/23 05:38:44;;;;;;;15.23;10.38;;;10.40;99.90;;;;;;4991420;28;20129;-74
2022/10/23 05:41:10;;;;;;;13.00;9.48;;;10.40;99.90;;;;;;5008783;28;20100;-75
2022/10/23 05:43:35;;;;;;;14.57;11.27;;;10.40;99.90;;;;;;5007644;28;20050;-74
2022/10/23 05:46:05;;;;;;;19.48;11.63;;;10.40;99.90;;;;;;5008822;28;20125;-74
2022/10/23 05:48:31;;;;;;;14.90;11.15;;;10.30;99.90;;;;;;5008540;28;20120;-74
2022/10/23 05:51:02;;;;;;;15.38;11.82;;;10.30;99.90;;;;;;5007878;28;20472;-76
2022/10/23 05:53:28;;;;;;;14.48;10.85;;;10.30;99.90;;;;;;5008857;28;20089;-74
2022/10/23 05:55:54;;;;;;;16.42;11.43;;;10.30;99.90;;;;;;5007541;28;20073;-75
2022/10/23 05:58:19;;;;;;;16.65;11.63;;;10.30;99.90;;;;;;5008964;28;20050;-76
2022/10/23 06:00:45;;;;;;;10.20;9.10;;;10.30;99.90;;;;;;5008894;28;20662;-75
2022/10/23 06:03:10;;;;;;;13.20;11.02;;;10.30;99.90;;;;;;5008256;28;20420;-74
2022/10/23 06:05:36;;;;;;;17.17;11.52;;;10.30;99.90;;;;;;5008618;28;20042;-74
2022/10/23 06:08:01;;;;;;;14.52;11.38;;;10.30;99.90;;;;;;5007195;28;20060;-74
2022/10/23 06:10:27;;;;;;;17.77;12.05;;;10.30;99.90;;;;;;5008567;28;20481;-74
2022/10/23 06:12:53;;;;;;;13.63;10.60;;;10.20;99.90;;;;;;5008284;28;20512;-75
2022/10/23 06:15:18;;;;;;;15.55;11.45;;;10.20;99.90;;;;;;5006740;28;20042;-74
2022/10/23 06:17:44;;;;;;;15.27;10.18;;;10.20;99.90;;;;;;5008400;28;20077;-74
2022/10/23 06:20:10;;;;;;;16.13;11.75;;;10.20;99.90;;;;;;5007935;28;20501;-74
2022/10/23 06:22:35;;;;;;;13.60;10.27;;;10.20;99.90;;;;;;5007525;28;20449;-74
2022/10/23 06:25:01;;;;;;;13.25;11.02;;;10.30;99.90;;;;;;5006272;28;20428;-74
2022/10/23 06:27:26;;;;;;;24.45;11.75;;;10.20;99.90;;;;;;5008011;28;20077;-75
2022/10/23 06:29:52;;;;;;;20.38;13.05;;;10.20;99.90;;;;;;5007973;28;20497;-74
2022/10/23 06:32:18;;;;;;;26.17;13.20;;;10.30;99.90;;;;;;5008382;28;20500;-74
2022/10/23 06:34:43;;;;;;;24.83;12.52;;;10.30;99.90;;;;;;5008096;28;20046;-75
2022/10/23 06:37:09;;;;;;;16.27;11.45;;;10.30;99.90;;;;;;5006771;28;20539;-74
2022/10/23 06:39:35;;;;;;;18.48;14.95;;;10.30;99.90;;;;;;5006455;28;20050;-74
2022/10/23 06:42:01;;;;;;;20.70;13.23;;;10.40;99.90;;;;;;5007498;28;20081;-74
2022/10/23 06:44:27;;;;;;;17.48;13.38;;;10.30;99.90;;;;;;5006229;28;20500;-75
2022/10/23 06:46:52;;;;;;;17.42;13.38;;;10.40;99.90;;;;;;5007573;28;20053;-75
2022/10/23 06:49:18;;;;;;;17.50;11.65;;;10.40;99.90;;;;;;5007491;28;20121;-74
2022/10/23 06:51:43;;;;;;;18.08;13.10;;;10.40;99.90;;;;;;5005580;28;20081;-74
2022/10/23 06:54:10;;;;;;;18.58;13.43;;;10.40;99.90;;;;;;5006219;28;20048;-75
2022/10/23 06:56:36;;;;;;;15.43;13.10;;;10.50;99.90;;;;;;5006257;28;20507;-75
2022/10/23 06:59:02;;;;;;;16.52;13.57;;;10.50;99.90;;;;;;5007120;28;20038;-74
2022/10/23 07:01:28;;;;;;;16.50;13.68;;;10.50;99.90;;;;;;5005901;28;20046;-74
2022/10/23 07:03:53;;;;;;;26.73;13.73;;;10.50;99.90;;;;;;5006814;28;20401;-75
2022/10/23 07:06:19;;;;;;;18.02;14.15;;;10.50;99.90;;;;;;5005376;28;20049;-74
2022/10/23 07:08:44;;;;;;;26.05;14.63;;;10.50;99.90;;;;;;5007576;28;20042;-75
2022/10/23 07:11:12;;;;;;;22.52;14.88;;;10.50;99.90;;;;;;5006681;28;20517;-75
2022/10/23 07:13:39;;;;;;;19.35;13.80;;;10.60;99.90;;;;;;5006981;28;20408;-75
2022/10/23 07:16:13;;;;;;;21.55;15.75;;;10.60;99.90;;;;;;5006768;28;20091;-74
2022/10/23 07:18:39;;;;;;;22.10;14.38;;;10.60;99.90;;;;;;5007081;28;20064;-75
2022/10/23 07:21:05;;;;;;;23.23;14.73;;;10.70;99.90;;;;;;5006130;28;20038;-74
2022/10/23 07:23:30;;;;;;;22.30;14.73;;;10.70;99.90;;;;;;5005659;28;20053;-74
2022/10/23 07:26:02;;;;;;;21.23;16.83;;;10.60;99.90;;;;;;4992551;28;20046;-74
2022/10/23 07:28:28;;;;;;;33.75;16.05;;;10.70;99.90;;;;;;4987363;28;20102;-74
2022/10/23 07:30:58;;;;;;;25.50;16.50;;;10.80;99.90;;;;;;4990286;28;20050;-74
2022/10/23 07:33:23;;;;;;;23.00;16.10;;;10.80;99.90;;;;;;5005563;28;20049;-74
2022/10/23 07:35:49;;;;;;;27.83;16.88;;;10.80;99.90;;;;;;5006257;28;20500;-76
2022/10/23 07:38:15;;;;;;;23.48;16.98;;;10.90;99.90;;;;;;5007408;28;20096;-74
2022/10/23 07:40:40;;;;;;;25.60;15.95;;;10.90;99.90;;;;;;5005621;28;20042;-74
2022/10/23 07:43:06;;;;;;;29.52;16.48;;;10.90;99.90;;;;;;5006303;28;20042;-74
2022/10/23 07:45:31;;;;;;;22.20;15.75;;;11.00;99.90;;;;;;5005380;28;20491;-75
2022/10/23 07:47:57;;;;;;;24.70;15.68;;;11.00;99.90;;;;;;5006085;28;20608;-75
2022/10/23 07:50:22;;;;;;;28.08;18.08;;;11.00;99.90;;;;;;5005631;28;20046;-74
2022/10/23 07:52:48;;;;;;;21.77;16.30;;;11.00;99.90;;;;;;5004812;28;20045;-75
2022/10/23 07:55:13;;;;;;;26.08;15.07;;;11.10;99.90;;;;;;5006319;28;20042;-75
2022/10/23 07:57:39;;;;;;;33.00;17.17;;;11.10;99.90;;;;;;5006638;28;20548;-74
2022/10/23 08:00:05;;;;;;;26.55;17.40;;;11.10;99.90;;;;;;5006077;28;20041;-74
2022/10/23 08:02:34;;;;;;;25.90;17.67;;;11.10;99.90;;;;;;5006244;28;20042;-75
2022/10/23 08:04:59;;;;;;;27.48;16.55;;;11.10;99.90;;;;;;5004927;28;20065;-75
2022/10/23 08:07:25;;;;;;;23.80;15.93;;;11.20;99.90;;;;;;5002835;28;20038;-75
2022/10/23 08:09:50;;;;;;;27.20;17.38;;;11.20;99.90;;;;;;4997899;28;20073;-75
2022/10/23 08:12:16;;;;;;;30.40;17.15;;;11.20;99.90;;;;;;4986969;28;20045;-74
2022/10/23 08:14:41;;;;;;;31.40;17.42;;;11.20;99.90;;;;;;4990765;28;20118;-75
2022/10/23 08:17:08;;;;;;;25.45;17.38;;;11.30;99.90;;;;;;4969286;28;20054;-75
2022/10/23 08:19:35;;;;;;;31.83;19.15;;;11.30;99.90;;;;;;4984946;28;20060;-75
2022/10/23 08:22:00;;;;;;;25.50;16.20;;;11.30;99.90;;;;;;4985715;28;20042;-74
2022/10/23 08:24:26;;;;;;;25.15;17.50;;;11.30;99.90;;;;;;4986654;28;20050;-75
2022/10/23 08:26:51;;;;;;;29.50;19.60;;;11.30;99.90;;;;;;4985700;28;20034;-74
2022/10/23 08:29:17;;;;;;;25.23;17.90;;;11.40;99.90;;;;;;4986549;28;20094;-74
2022/10/23 08:31:43;;;;;;;32.17;19.42;;;11.40;99.90;;;;;;4982919;28;20129;-75
2022/10/23 08:34:09;;;;;;;31.77;18.52;;;11.40;99.90;;;;;;4986314;28;20419;-75
2022/10/23 08:36:35;;;;;;;35.08;20.15;;;11.50;99.90;;;;;;4984601;28;20056;-74
2022/10/23 08:39:01;;;;;;;28.83;19.42;;;11.50;99.90;;;;;;4989967;28;20081;-74
2022/10/23 08:41:32;;;;;;;29.75;18.10;;;11.60;99.90;;;;;;4989958;28;20126;-74
2022/10/23 08:44:01;;;;;;;41.40;20.65;;;11.60;99.90;;;;;;4989258;28;20046;-75
2022/10/23 08:46:31;;;;;;;28.05;17.05;;;11.60;99.90;;;;;;4988042;28;20061;-75
2022/10/23 08:49:24;;;;;;;26.85;16.55;;;11.70;99.90;;;;;;4987116;28;20074;-75
2022/10/23 08:51:52;;;;;;;;;;;11.80;99.90;;;;;;4976218;28;20192;-76
2022/10/23 08:54:27;;;;;;;29.92;17.20;;;11.80;99.90;;;;;;4988661;28;19952;-74
2022/10/23 08:57:07;;;;;;;26.17;16.50;;;11.90;99.90;;;;;;4988444;28;20050;-75
2022/10/23 08:59:44;;;;;;;26.30;18.20;;;11.90;99.90;;;;;;4988696;28;20046;-76
2022/10/23 09:02:19;;;;;;;32.30;19.33;;;12.00;99.90;;;;;;4988822;28;20046;-76
2022/10/23 09:04:48;;;;;;;28.67;18.85;;;12.00;99.90;;;;;;4987127;28;20050;-76
2022/10/23 09:07:31;;;;;;;32.60;18.65;;;12.10;99.90;;;;;;4992911;28;20070;-75
2022/10/23 09:10:38;;;;;;;31.60;18.75;;;12.10;99.90;;;;;;4998598;28;20046;-77
2022/10/23 09:13:35;;;;;;;26.58;17.45;;;12.20;99.90;;;;;;4898056;29;20510;-76
2022/10/23 09:16:04;;;;;;;30.67;17.80;;;12.20;99.90;;;;;;4989616;28;20050;-75
2022/10/23 09:18:30;;;;;;;25.83;17.25;;;12.20;99.90;;;;;;4989053;28;20069;-76
2022/10/23 09:20:56;;;;;;;27.33;18.63;;;12.20;99.90;;;;;;4987791;28;20034;-76
2022/10/23 09:23:23;;;;;;;26.10;16.55;;;12.30;99.90;;;;;;4998998;28;20061;-76
2022/10/23 09:25:54;;;;;;;31.98;16.92;;;12.30;99.90;;;;;;4989607;28;20128;-76
2022/10/23 09:28:29;;;;;;;20.42;15.88;;;12.40;99.90;;;;;;4992431;28;20033;-77
2022/10/23 09:31:10;;;;;;;25.00;15.68;;;12.40;99.90;;;;;;4990123;28;20042;-76
2022/10/23 09:33:36;;;;;;;25.88;15.70;;;12.50;99.90;;;;;;4988091;28;20092;-75
2022/10/23 09:36:18;;;;;;;26.08;14.80;;;12.50;99.90;;;;;;4986485;28;20046;-76
2022/10/23 09:38:49;;;;;;;26.08;16.13;;;12.50;99.90;;;;;;4987012;28;20054;-76
2022/10/23 09:41:23;;;;;;;27.33;16.00;;;12.60;99.90;;;;;;4996071;28;20496;-76
2022/10/23 09:44:19;;;;;;;28.30;16.00;;;12.60;99.90;;;;;;4989148;28;21159;-75
2022/10/23 09:47:11;;;;;;;18.77;13.98;;;12.60;99.90;;;;;;4988349;28;20038;-76
2022/10/23 09:49:39;;;;;;;24.55;14.50;;;12.70;99.90;;;;;;4989151;28;20100;-76
2022/10/23 09:52:10;;;;;;;22.90;14.00;;;12.70;99.90;;;;;;4995641;28;20057;-77
2022/10/23 09:54:58;;;;;;;22.02;16.05;;;12.80;99.90;;;;;;4991946;28;20050;-77
2022/10/23 09:57:37;;;;;;;26.95;14.95;;;12.80;99.90;;;;;;4986702;28;20089;-76
2022/10/23 10:00:15;;;;;;;23.77;13.73;;;12.80;99.90;;;;;;4988702;28;20042;-77
2022/10/23 10:02:43;;;;;;;22.10;14.48;;;12.80;99.90;;;;;;4988589;28;20062;-76
2022/10/23 10:05:23;;;;;;;21.92;13.52;;;12.80;99.90;;;;;;4998544;28;20066;-76
2022/10/23 10:08:04;;;;;;;27.30;14.85;;;12.80;99.90;;;;;;4988552;28;20390;-76
2022/10/23 10:10:36;;;;;;;24.77;14.77;;;12.90;99.90;;;;;;4994747;28;20050;-76
2022/10/23 10:13:17;;;;;;;23.27;15.45;;;12.90;99.90;;;;;;4979535;28;20042;-76
2022/10/23 10:15:51;;;;;;;18.92;12.93;;;12.90;99.90;;;;;;4987714;28;20078;-77
2022/10/23 10:18:29;;;;;;;20.83;13.07;;;13.00;99.90;;;;;;4989508;28;20042;-75
2022/10/23 10:21:07;;;;;;;19.05;13.85;;;13.00;99.90;;;;;;4986075;28;20501;-76
2022/10/23 10:23:38;;;;;;;21.80;11.98;;;13.00;99.90;;;;;;4985707;28;20532;-76
2022/10/23 10:26:35;;;;;;;16.52;11.90;;;13.10;99.90;;;;;;5001056;28;20087;-76
2022/10/23 10:29:24;;;;;;;17.40;10.48;;;13.10;99.90;;;;;;4985232;28;20046;-74
2022/10/23 10:32:11;;;;;;;14.90;10.73;;;13.20;99.90;;;;;;4993671;28;20053;-75
2022/10/23 10:34:46;;;;;;;14.68;10.90;;;13.30;99.90;;;;;;4969554;28;20508;-75
2022/10/23 10:37:39;;;;;;;16.20;10.50;;;13.30;99.90;;;;;;4985986;28;20046;-75
2022/10/23 10:40:20;;;;;;;15.48;9.93;;;13.40;99.90;;;;;;4988147;28;20069;-75
2022/10/23 10:43:08;;;;;;;13.20;9.45;;;13.40;99.90;;;;;;5001565;28;20038;-75
2022/10/23 10:45:47;;;;;;;14.23;10.07;;;13.40;99.90;;;;;;4986196;28;20042;-75
2022/10/23 10:48:45;;;;;;;16.05;9.70;;;13.50;99.90;;;;;;4981689;28;20046;-75
2022/10/23 10:51:24;;;;;;;15.98;10.05;;;13.60;99.90;;;;;;4935852;28;20058;-76
2022/10/23 10:54:08;;;;;;;17.10;10.32;;;13.60;99.90;;;;;;4982192;28;20062;-77
2022/10/23 10:56:38;;;;;;;15.05;8.65;;;13.60;99.90;;;;;;4994195;28;20419;-76
2022/10/23 10:59:23;;;;;;;10.65;7.85;;;13.70;99.90;;;;;;4996314;28;20117;-76
2022/10/23 11:02:14;;;;;;;11.52;8.45;;;13.80;99.90;;;;;;4982543;28;20050;-76
2022/10/23 11:04:47;;;;;;;12.23;8.27;;;13.80;99.90;;;;;;4986822;28;20046;-76
2022/10/23 11:07:17;;;;;;;12.45;8.48;;;13.80;99.90;;;;;;5003827;28;20092;-76
2022/10/23 11:09:44;;;;;;;10.77;8.05;;;13.80;99.90;;;;;;5006734;28;20037;-77
2022/10/23 11:12:22;;;;;;;10.68;7.80;;;13.90;99.90;;;;;;5005134;28;20760;-74
2022/10/23 11:14:49;;;;;;;8.20;6.78;;;13.90;99.90;;;;;;5007732;28;20046;-75
2022/10/23 11:17:28;;;;;;;11.85;7.47;;;13.90;99.90;;;;;;5007046;28;20042;-76
2022/10/23 11:19:58;;;;;;;7.90;6.22;;;14.00;99.90;;;;;;5005221;28;20080;-74
2022/10/23 11:22:41;;;;;;;9.77;5.82;;;14.00;99.90;;;;;;5005839;28;20403;-75
2022/10/23 11:25:34;;;;;;;9.57;6.05;;;14.10;99.90;;;;;;5003260;28;20470;-75
2022/10/23 11:28:15;;;;;;;10.68;6.35;;;14.10;99.90;;;;;;4988979;28;20042;-75
2022/10/23 11:30:56;;;;;;;7.20;5.03;;;14.20;99.90;;;;;;4985835;28;20088;-75
2022/10/23 11:33:35;;;;;;;9.07;5.27;;;14.20;99.90;;;;;;4988969;28;20035;-77
2022/10/23 11:36:19;;;;;;;9.07;6.13;;;14.20;99.90;;;;;;4987270;28;20053;-76
2022/10/23 11:38:50;;;;;;;10.18;5.28;;;14.30;99.90;;;;;;4980151;28;20043;-78
2022/10/23 11:41:25;;;;;;;8.73;4.50;;;14.30;99.90;;;;;;4990057;28;20552;-77
2022/10/23 11:43:56;;;;;;;13.02;4.75;;;14.30;99.90;;;;;;4985199;28;20536;-77
2022/10/23 11:46:21;;;;;;;12.05;5.00;;;14.30;99.90;;;;;;4988959;28;20049;-77
2022/10/23 11:48:48;;;;;;;5.30;4.30;;;14.40;99.90;;;;;;4985635;28;20046;-77
2022/10/23 11:51:28;;;;;;;9.43;4.70;;;14.40;99.90;;;;;;4993710;28;20039;-77
2022/10/23 11:54:12;;;;;;;8.75;4.75;;;14.40;99.90;;;;;;4987106;28;20050;-77
2022/10/23 11:56:52;;;;;;;6.90;5.00;;;14.50;99.90;;;;;;4987159;28;20068;-77
2022/10/23 11:59:30;;;;;;;10.15;5.93;;;14.50;99.90;;;;;;4986912;28;20082;-77
2022/10/23 12:01:59;;;;;;;4.63;3.58;;;14.50;99.90;;;;;;4983792;28;20101;-77
2022/10/23 12:04:39;;;;;;;5.60;4.03;;;14.50;99.90;;;;;;4982079;28;20092;-77
2022/10/23 12:07:20;;;;;;;9.10;4.45;;;14.50;99.90;;;;;;4987499;28;20056;-78
2022/10/23 12:09:54;;;;;;;5.60;4.45;;;14.60;99.90;;;;;;4991520;28;20038;-79
2022/10/23 12:12:29;;;;;;;8.15;5.07;;;14.60;99.90;;;;;;4991889;28;20042;-79
2022/10/23 12:15:06;;;;;;;9.43;4.68;;;14.60;99.90;;;;;;5008653;28;20125;-78
2022/10/23 12:17:36;;;;;;;6.72;4.18;;;14.60;99.90;;;;;;4998266;28;20053;-78
2022/10/23 12:20:36;;;;;;;5.85;4.13;;;14.60;99.90;;;;;;4990564;28;20077;-78
2022/10/23 12:23:08;;;;;;;8.55;4.35;;;14.60;99.90;;;;;;4987478;28;20077;-77
2022/10/23 12:25:42;;;;;;;5.25;4.32;;;14.60;99.90;;;;;;4999028;28;20123;-78
2022/10/23 12:28:18;;;;;;;5.45;4.13;;;14.60;99.90;;;;;;4973339;28;20054;-79
2022/10/23 12:31:00;;;;;;;6.57;3.60;;;14.60;99.90;;;;;;5009976;28;20042;-87
2022/10/23 12:33:31;;;;;;;8.93;3.53;;;14.60;99.90;;;;;;5006534;28;20121;-80
2022/10/23 12:36:34;;;;;;;5.43;3.47;;;14.60;99.90;;;;;;5005501;28;20408;-79
2022/10/23 12:38:59;;;;;;;9.30;3.58;;;14.60;99.90;;;;;;4986483;28;20077;-80
2022/10/23 12:41:27;;;;;;;4.70;3.03;;;14.60;99.90;;;;;;5009819;28;20077;-82
2022/10/23 12:44:03;;;;;;;7.88;3.55;;;14.60;99.90;;;;;;5006620;28;20043;-82
2022/10/23 12:46:45;;;;;;;7.53;3.70;;;14.60;99.90;;;;;;5008502;28;20049;-80
2022/10/23 12:49:14;;;;;;;4.65;3.20;;;14.70;99.90;;;;;;5008874;28;20073;-81
2022/10/23 12:51:40;;;;;;;4.70;3.60;;;14.70;99.90;;;;;;5008442;28;20049;-82
2022/10/23 12:54:19;;;;;;;5.80;3.10;;;14.70;99.90;;;;;;5007610;28;20038;-81
2022/10/23 12:56:45;;;;;;;5.53;2.78;;;14.70;99.90;;;;;;5010152;28;20069;-84